WXM80 ListenWXM80 Stop

You find our weather info also at:

UK Metoffice

WeatherCloud

Weather Underground

Northeastern Weather Network

AWEKAS

Citizen Weather Observer Program (CWOP)

HAMweather, WeatherForYou, PWS Weather


Weather Underground History page Text

Daily Summary for August 17, 2017 Units:  English    Metric   Both
« Previous Day
Next Day »
Daily Weekly Monthly Yearly Custom
  High: Low: Average:
Temperature: 82.1 °F 68.6 °F 74.4 °F
Dew Point: 68.4 °F 60.2 °F 63.7 °F
Humidity: 93 % 48 % 71 %
Wind Speed: 5.0 mph 0.0 mph 1.5 mph
Wind Gust: 10.4 mph - -
Wind:- - ENE
Pressure: 30.03 in 29.92 in -
Precipitation: 0.00 in    
Historical Graphs
 
 
Tabular Data for August 17, 2017
Time Temperature Dew Point Pressure Wind Wind Speed Wind Gust Humidity Rainfall Rate (Hourly)
00:04 70.5 °F 66.8 °F 29.97 in Calm     88 % 0.00 in
00:09 70.5 °F 66.8 °F 29.97 in Calm     88 % 0.00 in
00:14 70.5 °F 67.1 °F 29.97 in Calm     89 % 0.00 in
00:19 70.4 °F 66.7 °F 29.97 in Calm     88 % 0.00 in
00:25 70.3 °F 66.6 °F 29.97 in Calm     88 % 0.00 in
00:30 70.3 °F 66.6 °F 29.97 in Calm     88 % 0.00 in
00:35 70.2 °F 66.5 °F 29.97 in Calm   1.2 mph 88 % 0.00 in
00:40 70.1 °F 66.4 °F 29.97 in Calm     88 % 0.00 in
00:45 70.0 °F 66.6 °F 29.97 in Calm     89 % 0.00 in
00:50 70.0 °F 66.6 °F 29.96 in Calm     89 % 0.00 in
00:55 69.9 °F 66.5 °F 29.97 in Calm     89 % 0.00 in
01:00 69.8 °F 66.4 °F 29.97 in Calm     89 % 0.00 in
01:05 69.6 °F 65.6 °F 29.97 in North 3.0 mph 4.6 mph 87 % 0.00 in
01:10 69.5 °F 65.1 °F 29.97 in NNE 3.9 mph 5.0 mph 86 % 0.00 in
01:15 69.5 °F 64.8 °F 29.97 in NNE 4.0 mph 6.9 mph 85 % 0.00 in
01:20 69.7 °F 64.3 °F 29.98 in NNE 3.8 mph 5.8 mph 83 % 0.00 in
01:25 69.8 °F 64.4 °F 29.97 in NNE 2.9 mph 5.8 mph 83 % 0.00 in
01:30 70.1 °F 64.0 °F 29.97 in North 3.8 mph 6.9 mph 81 % 0.00 in
01:35 70.3 °F 64.5 °F 29.97 in NNE 3.8 mph 6.0 mph 82 % 0.00 in
01:40 70.5 °F 64.4 °F 29.97 in NNE 3.1 mph 4.6 mph 81 % 0.00 in
01:45 70.6 °F 64.1 °F 29.98 in NNE 2.4 mph 5.8 mph 80 % 0.00 in
01:51 70.8 °F 64.3 °F 29.98 in NNE 3.1 mph 5.8 mph 80 % 0.00 in
01:56 70.9 °F 64.1 °F 29.98 in NE 3.6 mph 6.0 mph 79 % 0.00 in
02:01 71.0 °F 64.2 °F 29.98 in North 3.0 mph 4.6 mph 79 % 0.00 in
02:02 71.1 °F 64.3 °F 29.98 in NNE 2.5 mph 3.5 mph 79 % 0.00 in
02:07 71.1 °F 64.3 °F 29.98 in North 1.5 mph 3.5 mph 79 % 0.00 in
02:12 71.2 °F 64.4 °F 29.97 in NNE 1.5 mph 3.5 mph 79 % 0.00 in
02:17 71.2 °F 63.6 °F 29.98 in North 2.6 mph 6.9 mph 77 % 0.00 in
02:22 71.2 °F 63.2 °F 29.97 in NNE 1.7 mph 3.5 mph 76 % 0.00 in
02:27 71.2 °F 62.9 °F 29.97 in NE 2.9 mph 5.0 mph 75 % 0.00 in
02:32 71.2 °F 62.5 °F 29.97 in NE 1.8 mph 3.5 mph 74 % 0.00 in
02:38 71.1 °F 62.4 °F 29.97 in NNE 1.9 mph 4.0 mph 74 % 0.00 in
02:43 71.1 °F 62.0 °F 29.97 in NNE 3.0 mph 5.0 mph 73 % 0.00 in
02:48 71.1 °F 61.6 °F 29.97 in NNE 4.2 mph 5.8 mph 72 % 0.00 in
02:53 71.1 °F 61.6 °F 29.97 in NNE 3.4 mph 5.8 mph 72 % 0.00 in
02:58 71.1 °F 62.0 °F 29.97 in NNE 1.4 mph 3.5 mph 73 % 0.00 in
03:03 71.0 °F 61.9 °F 29.97 in NNE 3.6 mph 4.6 mph 73 % 0.00 in
03:08 71.0 °F 61.5 °F 29.97 in North 2.0 mph 4.6 mph 72 % 0.00 in
03:13 70.9 °F 61.0 °F 29.97 in NNE 3.8 mph 6.9 mph 71 % 0.00 in
03:18 70.8 °F 60.9 °F 29.97 in NNE 0.7 mph 2.3 mph 71 % 0.00 in
03:23 70.8 °F 61.3 °F 29.97 in NE 2.1 mph 4.0 mph 72 % 0.00 in
03:28 70.8 °F 61.3 °F 29.97 in NNE 0.7 mph 3.5 mph 72 % 0.00 in
03:33 70.7 °F 61.2 °F 29.98 in NNE 2.9 mph 4.6 mph 72 % 0.00 in
03:38 70.6 °F 61.1 °F 29.97 in NNE 2.3 mph 4.6 mph 72 % 0.00 in
03:44 70.4 °F 60.9 °F 29.97 in North 0.7 mph 3.0 mph 72 % 0.00 in
03:49 70.4 °F 60.9 °F 29.97 in North 2.7 mph 3.5 mph 72 % 0.00 in
03:54 70.2 °F 60.4 °F 29.97 in NNE 2.7 mph 4.6 mph 71 % 0.00 in
03:59 70.1 °F 60.3 °F 29.98 in NNE 1.7 mph 4.6 mph 71 % 0.00 in
04:04 70.1 °F 60.7 °F 29.97 in NNE 2.8 mph 5.8 mph 72 % 0.00 in
04:09 70.0 °F 60.9 °F 29.97 in NNE 3.0 mph 4.6 mph 73 % 0.00 in
04:14 70.0 °F 61.3 °F 29.97 in NNE 1.1 mph 3.5 mph 74 % 0.00 in
04:19 69.9 °F 61.2 °F 29.97 in NNE 3.4 mph 4.6 mph 74 % 0.00 in
04:24 69.7 °F 61.0 °F 29.97 in North 2.1 mph 3.5 mph 74 % 0.00 in
04:29 69.6 °F 60.9 °F 29.97 in NNE 2.0 mph 3.5 mph 74 % 0.00 in
04:34 69.5 °F 61.6 °F 29.97 in North 4.0 mph 5.0 mph 76 % 0.00 in
04:39 69.4 °F 61.9 °F 29.97 in NNE 2.2 mph 3.5 mph 77 % 0.00 in
04:44 69.3 °F 62.1 °F 29.97 in NNE 0.7 mph 3.5 mph 78 % 0.00 in
04:49 69.2 °F 61.7 °F 29.97 in North 1.9 mph 3.5 mph 77 % 0.00 in
04:54 69.1 °F 61.6 °F 29.97 in NE 0.3 mph 3.5 mph 77 % 0.00 in
04:59 69.0 °F 61.5 °F 29.98 in NE 1.4 mph 4.6 mph 77 % 0.00 in
05:04 68.8 °F 60.9 °F 29.98 in NE 1.7 mph 6.9 mph 76 % 0.00 in
05:09 68.7 °F 60.8 °F 29.98 in ENE 2.5 mph 6.9 mph 76 % 0.00 in
05:14 68.6 °F 60.4 °F 29.98 in NE 1.0 mph 3.5 mph 75 % 0.00 in
05:20 68.7 °F 60.5 °F 29.98 in NE 1.1 mph 3.5 mph 75 % 0.00 in
05:25 68.8 °F 60.9 °F 29.98 in NE 2.5 mph 4.6 mph 76 % 0.00 in
05:30 68.8 °F 60.6 °F 29.98 in NNE 1.9 mph 6.9 mph 75 % 0.00 in
05:35 68.9 °F 61.0 °F 29.99 in NE 0.7 mph 3.5 mph 76 % 0.00 in
05:40 69.0 °F 61.5 °F 29.99 in NE 3.2 mph 4.6 mph 77 % 0.00 in
05:45 69.0 °F 61.5 °F 29.98 in NE 1.3 mph 4.6 mph 77 % 0.00 in
05:50 69.0 °F 61.5 °F 29.99 in ENE 2.5 mph 7.0 mph 77 % 0.00 in
05:55 69.0 °F 61.1 °F 29.99 in NE 1.7 mph 3.5 mph 76 % 0.00 in
06:00 69.0 °F 61.5 °F 29.99 in ENE 1.6 mph 4.0 mph 77 % 0.00 in
06:05 68.9 °F 61.4 °F 29.99 in NE 2.0 mph 3.5 mph 77 % 0.00 in
06:10 68.8 °F 61.3 °F 29.99 in NE 1.0 mph 2.3 mph 77 % 0.00 in
06:15 68.8 °F 61.3 °F 29.99 in NE 2.0 mph 4.6 mph 77 % 0.00 in
06:20 68.7 °F 61.2 °F 29.99 in North 1.5 mph 9.2 mph 77 % 0.00 in
06:25 68.7 °F 61.6 °F 30.00 in NE 1.6 mph 6.9 mph 78 % 0.00 in
06:31 68.6 °F 61.5 °F 30.00 in ENE 1.7 mph 3.5 mph 78 % 0.00 in
06:36 68.6 °F 61.5 °F 30.00 in ENE 3.0 mph 8.0 mph 78 % 0.00 in
06:41 68.6 °F 61.1 °F 30.00 in ENE 3.0 mph 8.0 mph 77 % 0.00 in
06:46 68.8 °F 61.3 °F 30.00 in NE 3.0 mph 7.0 mph 77 % 0.00 in
06:51 68.9 °F 61.4 °F 30.00 in NE 3.0 mph 5.0 mph 77 % 0.00 in
06:53 69.0 °F 61.5 °F 30.00 in NE 0.1 mph 2.3 mph 77 % 0.00 in
06:58 69.1 °F 61.2 °F 30.01 in NE 2.5 mph 4.6 mph 76 % 0.00 in
07:03 69.2 °F 61.7 °F 30.01 in East 2.7 mph 4.0 mph 77 % 0.00 in
07:08 69.3 °F 61.4 °F 30.01 in NE 2.3 mph 6.9 mph 76 % 0.00 in
07:13 69.3 °F 61.8 °F 30.01 in NE 1.7 mph 3.5 mph 77 % 0.00 in
07:18 69.4 °F 61.9 °F 30.02 in NE 3.7 mph 7.0 mph 77 % 0.00 in
07:23 69.5 °F 62.0 °F 30.02 in NE 2.4 mph 4.6 mph 77 % 0.00 in
07:28 69.6 °F 62.1 °F 30.02 in NE 4.9 mph 10.4 mph 77 % 0.00 in
07:34 69.7 °F 62.2 °F 30.02 in NE 2.0 mph 3.5 mph 77 % 0.00 in
07:39 69.8 °F 62.3 °F 30.02 in NE 1.2 mph 3.5 mph 77 % 0.00 in
07:44 69.8 °F 62.6 °F 30.03 in NE 0.9 mph 2.3 mph 78 % 0.00 in
07:49 69.8 °F 63.0 °F 30.03 in North 1.0 mph 5.8 mph 79 % 0.00 in
07:54 69.9 °F 63.4 °F 30.02 in ENE 1.2 mph 5.0 mph 80 % 0.00 in
07:59 70.1 °F 63.6 °F 30.03 in East 1.3 mph 3.5 mph 80 % 0.00 in
08:04 70.2 °F 63.4 °F 30.03 in NE 1.6 mph 4.0 mph 79 % 0.00 in
08:09 70.3 °F 63.1 °F 30.03 in NE 2.3 mph 5.8 mph 78 % 0.00 in
08:14 70.3 °F 63.5 °F 30.02 in ENE 3.2 mph 6.9 mph 79 % 0.00 in
08:19 70.4 °F 63.9 °F 30.03 in NE 1.9 mph 4.6 mph 80 % 0.00 in
08:24 70.5 °F 64.0 °F 30.02 in ENE 2.5 mph 3.5 mph 80 % 0.00 in
08:29 70.6 °F 64.1 °F 30.03 in ENE 0.7 mph 2.3 mph 80 % 0.00 in
08:34 70.7 °F 63.9 °F 30.02 in ENE 0.7 mph 2.0 mph 79 % 0.00 in
08:39 70.8 °F 64.0 °F 30.02 in ENE 0.9 mph 2.3 mph 79 % 0.00 in
08:44 71.0 °F 64.2 °F 30.02 in NE 1.4 mph 2.3 mph 79 % 0.00 in
08:49 71.1 °F 64.6 °F 30.02 in Calm   2.3 mph 80 % 0.00 in
08:54 71.3 °F 64.8 °F 30.02 in ENE 0.8 mph 2.3 mph 80 % 0.00 in
08:59 71.5 °F 64.3 °F 30.02 in ENE 1.6 mph 3.5 mph 78 % 0.00 in
09:04 71.7 °F 64.5 °F 30.02 in East 0.6 mph 3.5 mph 78 % 0.00 in
09:05 71.7 °F 64.5 °F 30.02 in NE 0.7 mph 2.0 mph 78 % 0.00 in
09:10 71.9 °F 65.0 °F 30.02 in NE 0.4 mph 1.2 mph 79 % 0.00 in
09:15 72.2 °F 64.6 °F 30.02 in NE 2.6 mph 3.5 mph 77 % 0.00 in
09:20 72.4 °F 64.8 °F 30.02 in NE 2.6 mph 5.0 mph 77 % 0.00 in
09:25 72.5 °F 64.9 °F 30.02 in NE 0.8 mph 2.3 mph 77 % 0.00 in
09:30 72.6 °F 64.2 °F 30.02 in NE 2.2 mph 5.8 mph 75 % 0.00 in
09:35 72.6 °F 63.8 °F 30.02 in NE 2.4 mph 3.5 mph 74 % 0.00 in
09:40 72.8 °F 63.6 °F 30.02 in ENE 1.3 mph 3.5 mph 73 % 0.00 in
09:45 73.0 °F 64.2 °F 30.02 in NE 0.5 mph 1.2 mph 74 % 0.00 in
09:50 73.3 °F 64.1 °F 30.02 in NE 2.0 mph 3.5 mph 73 % 0.00 in
09:55 73.9 °F 65.1 °F 30.03 in NE 2.2 mph 5.0 mph 74 % 0.00 in
10:00 74.2 °F 65.0 °F 30.02 in NE 2.7 mph 5.0 mph 73 % 0.00 in
10:05 74.5 °F 65.3 °F 30.02 in NE 1.3 mph 3.5 mph 73 % 0.00 in
10:10 75.0 °F 65.4 °F 30.02 in ENE 2.2 mph 3.5 mph 72 % 0.00 in
10:15 75.4 °F 64.9 °F 30.02 in ENE 2.7 mph 5.0 mph 70 % 0.00 in
10:20 75.8 °F 64.9 °F 30.02 in NE 2.3 mph 5.0 mph 69 % 0.00 in
10:25 76.1 °F 64.3 °F 30.02 in ENE 2.3 mph 3.5 mph 67 % 0.00 in
10:29 76.3 °F 65.0 °F 30.02 in NE 2.2 mph 6.0 mph 68 % 0.00 in
10:34 77.0 °F 64.8 °F 30.02 in East 2.1 mph 5.0 mph 66 % 0.00 in
10:39 77.5 °F 64.4 °F 30.01 in ENE 2.9 mph 6.9 mph 64 % 0.00 in
10:44 77.8 °F 63.3 °F 30.01 in NE 2.9 mph 4.6 mph 61 % 0.00 in
10:49 78.0 °F 63.5 °F 30.01 in ENE 2.2 mph 4.6 mph 61 % 0.00 in
10:54 78.5 °F 63.5 °F 30.01 in ENE 0.8 mph 2.3 mph 60 % 0.00 in
10:59 79.3 °F 64.7 °F 30.01 in NE 1.0 mph 2.3 mph 61 % 0.00 in
11:04 79.8 °F 62.7 °F 30.01 in NE 2.5 mph 4.6 mph 56 % 0.00 in
11:09 80.0 °F 62.9 °F 30.01 in ENE 0.7 mph 4.0 mph 56 % 0.00 in
11:14 80.2 °F 63.1 °F 30.01 in ENE 3.1 mph 4.6 mph 56 % 0.00 in
11:19 80.4 °F 62.2 °F 30.02 in NE 2.7 mph 4.6 mph 54 % 0.00 in
11:24 80.4 °F 62.8 °F 30.01 in ENE 0.9 mph 3.5 mph 55 % 0.00 in
11:29 80.8 °F 64.1 °F 30.01 in NE 1.6 mph 3.5 mph 57 % 0.00 in
11:34 81.2 °F 62.4 °F 30.01 in ENE 2.3 mph 4.6 mph 53 % 0.00 in
11:39 81.3 °F 63.6 °F 30.01 in ENE 0.8 mph 2.3 mph 55 % 0.00 in
11:44 81.6 °F 64.4 °F 30.01 in NE 1.4 mph 3.0 mph 56 % 0.00 in
11:49 81.9 °F 63.1 °F 30.01 in ENE 0.7 mph 5.8 mph 53 % 0.00 in
11:54 81.9 °F 63.1 °F 30.01 in NE 2.0 mph 3.5 mph 53 % 0.00 in
11:59 82.1 °F 64.3 °F 30.01 in NE 2.2 mph 4.6 mph 55 % 0.00 in
12:04 81.9 °F 62.5 °F 30.01 in ENE 4.2 mph 7.0 mph 52 % 0.00 in
12:09 81.7 °F 63.4 °F 30.01 in East 3.6 mph 7.0 mph 54 % 0.00 in
12:14 81.4 °F 64.2 °F 30.01 in ENE 2.8 mph 7.0 mph 56 % 0.00 in
12:19 81.6 °F 62.3 °F 30.01 in East 5.0 mph 8.1 mph 52 % 0.00 in
12:24 80.9 °F 60.5 °F 30.01 in ENE 3.2 mph 5.8 mph 50 % 0.00 in
12:29 81.2 °F 64.0 °F 30.00 in NE 0.5 mph 2.3 mph 56 % 0.00 in
12:34 81.7 °F 62.9 °F 30.01 in NE 1.3 mph 5.8 mph 53 % 0.00 in
12:39 81.8 °F 60.2 °F 30.00 in ENE 2.4 mph 8.1 mph 48 % 0.00 in
12:44 81.7 °F 61.8 °F 30.00 in ENE 3.2 mph 6.0 mph 51 % 0.00 in
12:49 81.9 °F 63.6 °F 30.00 in ENE 1.0 mph 2.3 mph 54 % 0.00 in
12:55 81.9 °F 62.5 °F 30.00 in NE 1.4 mph 8.0 mph 52 % 0.00 in
13:00 81.5 °F 62.2 °F 30.00 in ENE 3.1 mph 3.5 mph 52 % 0.00 in
13:05 81.0 °F 62.3 °F 30.00 in NE 1.9 mph 9.2 mph 53 % 0.00 in
13:10 81.0 °F 63.3 °F 30.00 in East 1.8 mph 6.0 mph 55 % 0.00 in
13:15 80.9 °F 62.7 °F 30.00 in NE 1.8 mph 6.9 mph 54 % 0.00 in
13:20 80.7 °F 63.0 °F 30.00 in NE 1.2 mph 4.6 mph 55 % 0.00 in
13:25 80.4 °F 62.8 °F 30.00 in NE 1.4 mph 6.9 mph 55 % 0.00 in
13:30 80.1 °F 62.5 °F 30.00 in NE 0.8 mph 3.5 mph 55 % 0.00 in
13:35 80.1 °F 63.5 °F 29.99 in NE 2.4 mph 5.0 mph 57 % 0.00 in
13:40 80.4 °F 64.3 °F 29.99 in ENE 2.9 mph 6.9 mph 58 % 0.00 in
13:45 80.5 °F 64.4 °F 29.99 in NE 1.0 mph 2.3 mph 58 % 0.00 in
13:50 80.9 °F 64.2 °F 29.98 in NE 1.9 mph 3.5 mph 57 % 0.00 in
13:55 81.2 °F 64.5 °F 29.99 in NE 3.1 mph 6.9 mph 57 % 0.00 in
14:00 81.2 °F 64.0 °F 29.98 in ENE 0.7 mph 3.5 mph 56 % 0.00 in
14:05 81.5 °F 63.3 °F 29.98 in ENE 1.6 mph 4.6 mph 54 % 0.00 in
14:10 81.5 °F 64.3 °F 29.98 in ENE 0.5 mph 2.3 mph 56 % 0.00 in
14:15 81.6 °F 63.9 °F 29.97 in NNE 2.5 mph 4.6 mph 55 % 0.00 in
14:20 81.4 °F 62.6 °F 29.98 in ENE 0.7 mph 3.5 mph 53 % 0.00 in
14:25 81.1 °F 62.9 °F 29.98 in ENE 2.6 mph 4.6 mph 54 % 0.00 in
14:30 80.9 °F 63.7 °F 29.97 in ENE 0.5 mph 3.5 mph 56 % 0.00 in
14:35 81.1 °F 64.4 °F 29.97 in NE 1.0 mph 2.3 mph 57 % 0.00 in
14:40 81.2 °F 63.5 °F 29.97 in NE 1.8 mph 5.8 mph 55 % 0.00 in
14:45 81.2 °F 62.4 °F 29.96 in ENE 4.6 mph 8.1 mph 53 % 0.00 in
14:50 81.3 °F 64.1 °F 29.97 in East 1.8 mph 5.0 mph 56 % 0.00 in
14:55 81.4 °F 63.7 °F 29.96 in NNE 2.0 mph 4.6 mph 55 % 0.00 in
15:00 81.5 °F 64.3 °F 29.96 in ENE 0.7 mph 3.0 mph 56 % 0.00 in
15:06 81.6 °F 63.3 °F 29.96 in ENE 1.0 mph 6.0 mph 54 % 0.00 in
15:11 81.5 °F 63.2 °F 29.95 in ENE 1.0 mph 6.0 mph 54 % 0.00 in
15:16 81.5 °F 64.3 °F 29.95 in ENE 1.0 mph 3.0 mph 56 % 0.00 in
15:21 81.4 °F 62.6 °F 29.95 in ENE 1.0 mph 6.0 mph 53 % 0.00 in
15:26 81.1 °F 63.4 °F 29.95 in ENE 3.0 mph 8.0 mph 55 % 0.00 in
15:31 81.2 °F 64.5 °F 29.95 in NE 1.0 mph 3.0 mph 57 % 0.00 in
15:36 81.2 °F 64.5 °F 29.95 in NE 2.0 mph 3.0 mph 57 % 0.00 in
15:41 81.2 °F 64.0 °F 29.95 in NE 3.0 mph 7.0 mph 56 % 0.00 in
15:46 81.1 °F 63.9 °F 29.95 in NE 1.0 mph 6.0 mph 56 % 0.00 in
15:51 81.1 °F 63.9 °F 29.95 in ENE 2.0 mph 5.0 mph 56 % 0.00 in
15:56 81.1 °F 65.4 °F 29.95 in Calm   5.0 mph 59 % 0.00 in
16:01 81.3 °F 65.1 °F 29.94 in SSE 1.0 mph 3.5 mph 58 % 0.00 in
16:06 81.5 °F 60.5 °F 29.94 in SE 5.0 mph 9.2 mph 49 % 0.00 in
16:11 81.5 °F 61.6 °F 29.94 in South 0.4 mph 3.5 mph 51 % 0.00 in
16:16 81.7 °F 61.2 °F 29.94 in SE 1.3 mph 6.9 mph 50 % 0.00 in
16:21 81.7 °F 61.2 °F 29.94 in SSE 3.4 mph 6.9 mph 50 % 0.00 in
16:26 81.7 °F 62.4 °F 29.94 in SSE 1.0 mph 3.5 mph 52 % 0.00 in
16:31 81.9 °F 62.5 °F 29.94 in SE 0.5 mph 2.3 mph 52 % 0.00 in
16:36 82.0 °F 63.2 °F 29.94 in SE 1.7 mph 3.5 mph 53 % 0.00 in
16:41 82.1 °F 63.3 °F 29.94 in SE 0.4 mph 2.3 mph 53 % 0.00 in
16:46 82.1 °F 62.7 °F 29.94 in SSW 1.2 mph 2.3 mph 52 % 0.00 in
16:51 81.9 °F 62.5 °F 29.94 in SE 4.2 mph 8.1 mph 52 % 0.00 in
16:56 81.7 °F 63.4 °F 29.94 in Calm   3.5 mph 54 % 0.00 in
17:01 81.4 °F 62.6 °F 29.93 in SE 3.4 mph 4.0 mph 53 % 0.00 in
17:06 81.1 °F 62.9 °F 29.94 in SW 0.8 mph 2.3 mph 54 % 0.00 in
17:11 81.0 °F 62.8 °F 29.93 in SE 1.7 mph 3.5 mph 54 % 0.00 in
17:17 80.8 °F 62.6 °F 29.94 in SE 1.1 mph 5.8 mph 54 % 0.00 in
17:21 80.5 °F 62.3 °F 29.94 in Calm   1.2 mph 54 % 0.00 in
17:27 80.2 °F 63.1 °F 29.94 in Calm   1.2 mph 56 % 0.00 in
17:32 80.1 °F 62.5 °F 29.94 in SE 1.1 mph 5.8 mph 55 % 0.00 in
17:37 79.9 °F 62.8 °F 29.93 in SE 0.5 mph 2.3 mph 56 % 0.00 in
17:42 79.7 °F 62.6 °F 29.93 in SE 4.1 mph 9.2 mph 56 % 0.00 in
17:47 79.5 °F 63.4 °F 29.93 in SE 0.5 mph 2.3 mph 58 % 0.00 in
17:52 79.3 °F 62.7 °F 29.93 in ESE 0.8 mph 2.3 mph 57 % 0.00 in
17:57 79.1 °F 62.6 °F 29.93 in WSW 0.6 mph 3.0 mph 57 % 0.00 in
18:02 78.9 °F 62.9 °F 29.92 in SE 0.2 mph 1.2 mph 58 % 0.00 in
18:07 78.7 °F 62.7 °F 29.93 in SE 0.8 mph 3.5 mph 58 % 0.00 in
18:12 78.5 °F 63.0 °F 29.93 in South 2.4 mph 5.8 mph 59 % 0.00 in
18:17 78.2 °F 62.7 °F 29.93 in SSE 1.3 mph 3.5 mph 59 % 0.00 in
18:22 77.9 °F 62.4 °F 29.93 in SE 3.1 mph 4.6 mph 59 % 0.00 in
18:27 77.7 °F 62.7 °F 29.93 in SE 1.0 mph 2.3 mph 60 % 0.00 in
18:32 77.6 °F 63.1 °F 29.94 in SE 3.5 mph 6.0 mph 61 % 0.00 in
18:37 77.3 °F 62.8 °F 29.94 in SE 1.7 mph 3.5 mph 61 % 0.00 in
18:42 77.1 °F 63.1 °F 29.93 in ESE 2.8 mph 5.0 mph 62 % 0.00 in
18:47 76.9 °F 62.9 °F 29.93 in SE 2.9 mph 5.0 mph 62 % 0.00 in
18:52 76.7 °F 63.2 °F 29.94 in SE 1.3 mph 4.0 mph 63 % 0.00 in
18:57 76.6 °F 63.5 °F 29.93 in SE 1.4 mph 4.0 mph 64 % 0.00 in
19:02 76.4 °F 63.8 °F 29.93 in SE 0.1 mph   65 % 0.00 in
19:07 76.4 °F 64.2 °F 29.93 in Calm     66 % 0.00 in
19:12 76.2 °F 64.4 °F 29.92 in SE 0.1 mph 3.5 mph 67 % 0.00 in
19:17 76.1 °F 64.3 °F 29.93 in SE 0.9 mph 2.3 mph 67 % 0.00 in
19:22 75.9 °F 64.2 °F 29.93 in SE 2.0 mph 2.3 mph 67 % 0.00 in
19:27 75.7 °F 64.0 °F 29.93 in Calm     67 % 0.00 in
19:32 75.5 °F 64.2 °F 29.93 in Calm   1.2 mph 68 % 0.00 in
19:37 75.2 °F 64.3 °F 29.94 in Calm     69 % 0.00 in
19:43 74.9 °F 64.5 °F 29.94 in Calm     70 % 0.00 in
19:48 74.6 °F 64.2 °F 29.94 in Calm     70 % 0.00 in
19:53 74.4 °F 64.0 °F 29.93 in Calm     70 % 0.00 in
19:58 74.3 °F 64.3 °F 29.93 in Calm     71 % 0.00 in
20:03 74.1 °F 64.1 °F 29.93 in Calm     71 % 0.00 in
20:08 73.9 °F 64.3 °F 29.93 in Calm     72 % 0.00 in
20:13 73.7 °F 64.1 °F 29.93 in Calm     72 % 0.00 in
20:18 73.5 °F 64.3 °F 29.93 in Calm     73 % 0.00 in
20:23 73.3 °F 64.9 °F 29.93 in Calm   1.2 mph 75 % 0.00 in
20:28 73.1 °F 64.7 °F 29.93 in Calm     75 % 0.00 in
20:33 72.9 °F 65.3 °F 29.94 in Calm     77 % 0.00 in
20:38 72.8 °F 65.2 °F 29.94 in Calm     77 % 0.00 in
20:43 72.6 °F 65.3 °F 29.93 in SE 0.1 mph 2.3 mph 78 % 0.00 in
20:48 72.5 °F 66.0 °F 29.94 in SE 1.4 mph 2.3 mph 80 % 0.00 in
20:53 72.3 °F 66.1 °F 29.94 in Calm   3.5 mph 81 % 0.00 in
20:58 72.2 °F 66.4 °F 29.94 in SE 0.5 mph 3.5 mph 82 % 0.00 in
21:03 72.1 °F 66.3 °F 29.93 in SSE 0.8 mph 3.0 mph 82 % 0.00 in
21:08 72.1 °F 66.6 °F 29.93 in SE 0.6 mph 3.5 mph 83 % 0.00 in
21:13 72.0 °F 66.6 °F 29.93 in SE 0.2 mph   83 % 0.00 in
21:18 72.0 °F 66.6 °F 29.93 in SE 1.4 mph 3.5 mph 83 % 0.00 in
21:23 71.9 °F 66.8 °F 29.93 in SE 0.5 mph 1.0 mph 84 % 0.00 in
21:28 71.9 °F 66.8 °F 29.94 in Calm   2.3 mph 84 % 0.00 in
21:33 71.8 °F 66.7 °F 29.94 in Calm     84 % 0.00 in
21:38 71.7 °F 66.6 °F 29.93 in Calm     84 % 0.00 in
21:43 71.6 °F 66.5 °F 29.93 in Calm     84 % 0.00 in
21:48 71.6 °F 66.5 °F 29.93 in Calm     84 % 0.00 in
21:53 71.5 °F 66.4 °F 29.93 in Calm     84 % 0.00 in
21:58 71.4 °F 66.3 °F 29.93 in Calm     84 % 0.00 in
22:03 71.3 °F 66.2 °F 29.94 in Calm     84 % 0.00 in
22:08 71.2 °F 66.1 °F 29.94 in Calm     84 % 0.00 in
22:13 71.1 °F 66.4 °F 29.94 in SE 0.8 mph 1.0 mph 85 % 0.00 in
22:18 71.0 °F 66.6 °F 29.94 in Calm     86 % 0.00 in
22:23 70.9 °F 66.5 °F 29.95 in Calm     86 % 0.00 in
22:28 70.8 °F 66.4 °F 29.94 in Calm     86 % 0.00 in
22:33 70.7 °F 66.3 °F 29.94 in Calm     86 % 0.00 in
22:36 70.6 °F 66.2 °F 29.94 in Calm     86 % 0.00 in
22:41 70.6 °F 66.9 °F 29.94 in Calm     88 % 0.00 in
22:46 70.5 °F 67.1 °F 29.94 in Calm     89 % 0.00 in
22:51 70.4 °F 67.0 °F 29.94 in Calm     89 % 0.00 in
22:56 70.3 °F 66.9 °F 29.94 in Calm     89 % 0.00 in
23:01 70.2 °F 66.5 °F 29.94 in Calm     88 % 0.00 in
23:06 70.2 °F 66.8 °F 29.94 in Calm     89 % 0.00 in
23:11 70.1 °F 66.7 °F 29.94 in Calm     89 % 0.00 in
23:21 70.1 °F 67.0 °F 29.94 in Calm   2.3 mph 90 % 0.00 in
23:23 70.1 °F 67.0 °F 29.94 in Calm     90 % 0.00 in
23:26 70.1 °F 67.0 °F 29.94 in Calm     90 % 0.00 in
23:29 70.1 °F 67.3 °F 29.94 in Calm     91 % 0.00 in
23:33 70.1 °F 67.3 °F 29.94 in Calm     91 % 0.00 in
23:38 70.2 °F 67.8 °F 29.93 in Calm     92 % 0.00 in
23:43 70.2 °F 67.8 °F 29.93 in Calm     92 % 0.00 in
23:48 70.3 °F 68.2 °F 29.93 in SE 0.2 mph   93 % 0.00 in
23:53 70.4 °F 68.3 °F 29.93 in Calm     93 % 0.00 in
23:58 70.5 °F 68.4 °F 29.93 in Calm     93 % 0.00 in
Crab Meadow Weather
Compliments of Weather Underground - 3 mb

Script developed by  Jim McMurry - jmcmurry@mwt.net Adapted for the template by  Wim van der Kuil - Leuven-Template.eu

Hurricanes: In one day a hurricane can release enough energy to supply all of the nation's electrical needs for about six months.